Time;durP1;ratioP1;P1;durP2;ratioP2;P2;SDS_P1;SDS_P2;PMS_P1;PMS_P2;Temp;Humidity;BMP_temperature;BMP_pressure;BME280_temperature;BME280_humidity;BME280_pressure;Samples;Min_cycle;Max_cycle;Signal;HPM_P1;HPM_P2
2022/08/23 00:01:17;;;;;;;11.52;5.22;;;18.60;99.90;;;;;;5031944;28;20037;-67
2022/08/23 00:03:43;;;;;;;13.05;5.18;;;18.60;99.90;;;;;;5032219;28;20403;-67
2022/08/23 00:06:09;;;;;;;12.50;4.85;;;18.60;99.90;;;;;;5031661;28;20038;-67
2022/08/23 00:08:36;;;;;;;7.88;5.20;;;18.60;99.90;;;;;;5031521;28;20533;-67
2022/08/23 00:11:02;;;;;;;13.02;6.25;;;18.50;99.90;;;;;;5031647;28;20125;-67
2022/08/23 00:13:27;;;;;;;11.57;5.53;;;18.40;99.90;;;;;;5031879;28;20124;-67
2022/08/23 00:15:54;;;;;;;9.40;5.40;;;18.50;99.90;;;;;;5031530;28;20060;-67
2022/08/23 00:18:20;;;;;;;13.13;6.47;;;18.50;99.90;;;;;;5030343;28;20064;-67
2022/08/23 00:20:46;;;;;;;11.25;5.85;;;18.40;99.90;;;;;;5030239;28;20056;-67
2022/08/23 00:23:12;;;;;;;11.00;6.15;;;18.40;99.90;;;;;;5031527;28;20597;-67
2022/08/23 00:25:38;;;;;;;11.75;6.00;;;18.40;99.90;;;;;;5031452;28;20055;-67
2022/08/23 00:28:03;;;;;;;11.52;5.97;;;18.40;99.90;;;;;;5031649;28;20041;-67
2022/08/23 00:30:30;;;;;;;8.55;5.90;;;18.40;99.90;;;;;;5031412;28;20486;-67
2022/08/23 00:32:56;;;;;;;12.85;6.70;;;18.20;99.90;;;;;;5031415;28;20033;-67
2022/08/23 00:35:22;;;;;;;19.88;6.30;;;18.30;99.90;;;;;;5031121;28;20077;-67
2022/08/23 00:37:48;;;;;;;12.23;6.30;;;18.30;99.90;;;;;;5031149;28;20072;-67
2022/08/23 00:40:17;;;;;;;13.20;6.22;;;18.20;99.90;;;;;;5031363;28;20091;-67
2022/08/23 00:48:51;;;;;;;15.30;6.10;;;18.20;99.90;;;;;;5013765;28;20053;-67
2022/08/23 00:51:29;;;;;;;12.63;6.22;;;18.10;99.90;;;;;;5031112;28;20482;-67
2022/08/23 00:53:58;;;;;;;16.35;6.15;;;18.10;99.90;;;;;;5030758;28;20041;-67
2022/08/23 00:56:27;;;;;;;10.10;6.25;;;18.10;99.90;;;;;;5031227;28;20052;-67
2022/08/23 00:58:53;;;;;;;9.98;6.80;;;18.10;99.90;;;;;;5029708;28;20056;-67
2022/08/23 01:01:18;;;;;;;8.95;6.63;;;18.10;99.90;;;;;;5029798;28;20395;-67
2022/08/23 01:03:49;;;;;;;9.75;6.88;;;18.10;99.90;;;;;;5030811;28;20052;-67
2022/08/23 01:06:25;;;;;;;9.93;6.65;;;18.00;99.90;;;;;;5030671;28;20037;-67
2022/08/23 01:08:56;;;;;;;13.25;6.90;;;18.00;99.90;;;;;;5029443;28;20076;-67
2022/08/23 01:11:47;;;;;;;11.60;7.25;;;18.00;99.90;;;;;;5029554;28;20113;-67
2022/08/23 01:14:29;;;;;;;16.35;7.53;;;18.00;99.90;;;;;;5030810;28;20037;-67
2022/08/23 01:17:00;;;;;;;9.55;7.10;;;18.00;99.90;;;;;;5030838;28;20037;-67
2022/08/23 01:19:37;;;;;;;13.98;7.45;;;18.00;99.90;;;;;;5031092;28;20041;-67
2022/08/23 01:22:11;;;;;;;10.38;7.22;;;18.00;99.90;;;;;;5029546;28;20530;-67
2022/08/23 01:24:38;;;;;;;7.90;6.38;;;17.90;99.90;;;;;;5030555;28;20570;-67
2022/08/23 01:27:05;;;;;;;14.32;6.65;;;17.90;99.90;;;;;;5030638;28;20045;-67
2022/08/23 01:29:31;;;;;;;10.90;6.38;;;18.00;99.90;;;;;;5030914;28;20050;-67
2022/08/23 01:31:57;;;;;;;13.85;7.35;;;17.90;99.90;;;;;;5029324;28;20045;-67
2022/08/23 01:34:27;;;;;;;13.90;6.97;;;17.90;99.90;;;;;;5030368;28;20768;-68
2022/08/23 01:36:54;;;;;;;19.10;8.05;;;17.90;99.90;;;;;;5030714;28;20083;-67
2022/08/23 01:39:20;;;;;;;12.85;6.90;;;17.90;99.90;;;;;;5030575;28;20056;-67
2022/08/23 01:41:45;;;;;;;15.55;7.38;;;17.90;99.90;;;;;;5030461;28;20033;-67
2022/08/23 01:44:12;;;;;;;12.85;8.40;;;17.80;99.90;;;;;;5030551;28;20041;-67
2022/08/23 01:46:41;;;;;;;8.95;6.78;;;17.80;99.90;;;;;;5030679;28;20045;-67
2022/08/23 01:49:07;;;;;;;14.52;8.57;;;17.80;99.90;;;;;;5030405;28;20490;-67
2022/08/23 01:51:32;;;;;;;11.55;7.00;;;17.80;99.90;;;;;;5030398;28;20125;-67
2022/08/23 01:53:58;;;;;;;11.55;6.93;;;17.80;99.90;;;;;;5030090;28;20534;-67
2022/08/23 01:56:23;;;;;;;11.82;7.10;;;17.70;99.90;;;;;;5030634;28;20045;-67
2022/08/23 01:58:49;;;;;;;12.10;7.40;;;17.70;99.90;;;;;;5030628;28;20406;-67
2022/08/23 02:01:16;;;;;;;13.55;7.78;;;17.70;99.90;;;;;;5030525;28;20044;-67
2022/08/23 02:03:41;;;;;;;12.63;7.43;;;17.70;99.90;;;;;;5030255;28;20091;-67
2022/08/23 02:06:07;;;;;;;12.70;7.97;;;17.70;99.90;;;;;;5030358;28;20045;-67
2022/08/23 02:11:20;;;;;;;11.40;7.78;;;17.50;99.90;;;;;;5030431;28;20061;-67
2022/08/23 02:13:48;;;;;;;13.38;8.30;;;17.60;99.90;;;;;;5030098;28;20045;-67
2022/08/23 02:16:22;;;;;;;11.68;7.43;;;17.60;99.90;;;;;;5030390;28;20037;-67
2022/08/23 02:18:49;;;;;;;14.55;8.10;;;17.60;99.90;;;;;;5031026;28;20075;-67
2022/08/23 02:21:15;;;;;;;9.68;7.53;;;17.50;99.90;;;;;;5033831;28;20073;-67
2022/08/23 02:23:41;;;;;;;11.18;8.18;;;17.60;99.90;;;;;;5033734;28;20044;-67
2022/08/23 02:26:06;;;;;;;16.38;8.10;;;17.50;99.90;;;;;;5033815;28;20061;-67
2022/08/23 02:28:32;;;;;;;13.18;8.55;;;17.60;99.90;;;;;;5033820;28;20030;-67
2022/08/23 02:30:57;;;;;;;10.95;8.23;;;17.50;99.90;;;;;;5032261;28;20049;-67
2022/08/23 02:33:23;;;;;;;11.70;7.80;;;17.40;99.90;;;;;;5033565;28;20051;-67
2022/08/23 02:35:48;;;;;;;16.08;8.98;;;17.40;99.90;;;;;;5033551;28;20112;-67
2022/08/23 02:38:16;;;;;;;10.70;8.27;;;17.40;99.90;;;;;;5033433;28;20116;-67
2022/08/23 02:40:41;;;;;;;13.18;8.85;;;17.40;99.90;;;;;;5033473;28;20432;-67
2022/08/23 02:43:07;;;;;;;13.32;8.98;;;17.40;99.90;;;;;;5033627;28;20045;-67
2022/08/23 02:45:33;;;;;;;11.45;8.40;;;17.30;99.90;;;;;;5033065;28;20052;-67
2022/08/23 02:47:59;;;;;;;8.55;7.65;;;17.30;99.90;;;;;;5032920;28;20033;-67
2022/08/23 02:50:25;;;;;;;9.88;7.65;;;17.20;99.90;;;;;;5033305;28;20090;-67
2022/08/23 02:52:53;;;;;;;12.93;8.60;;;17.20;99.90;;;;;;5033481;28;20048;-67
2022/08/23 02:55:19;;;;;;;12.70;8.63;;;17.20;99.90;;;;;;5031704;28;20041;-67
2022/08/23 02:57:45;;;;;;;11.40;7.95;;;17.20;99.90;;;;;;5033279;28;20680;-67
2022/08/23 03:00:12;;;;;;;10.50;6.72;;;17.10;99.90;;;;;;5032966;28;20517;-67
2022/08/23 03:02:39;;;;;;;8.75;6.72;;;17.00;99.90;;;;;;5033121;28;20072;-67
2022/08/23 03:05:06;;;;;;;10.60;6.32;;;17.00;99.90;;;;;;5032922;28;20045;-67
2022/08/23 03:07:32;;;;;;;11.32;7.10;;;17.10;99.90;;;;;;5033091;28;20038;-67
2022/08/23 03:09:58;;;;;;;8.75;6.68;;;17.10;99.90;;;;;;5032741;28;20575;-67
2022/08/23 03:12:23;;;;;;;9.48;7.15;;;17.00;99.90;;;;;;5032871;28;20462;-67
2022/08/23 03:14:52;;;;;;;10.77;8.07;;;17.00;99.90;;;;;;5032557;28;20121;-67
2022/08/23 03:17:18;;;;;;;10.43;7.38;;;17.00;99.90;;;;;;5032706;28;20534;-67
2022/08/23 03:19:44;;;;;;;10.55;6.50;;;17.00;99.90;;;;;;5031529;28;20041;-67
2022/08/23 03:22:10;;;;;;;10.50;6.63;;;17.00;99.90;;;;;;5031561;28;20195;-67
2022/08/23 03:24:36;;;;;;;8.00;6.20;;;17.00;99.90;;;;;;5032499;28;20056;-67
2022/08/23 03:27:03;;;;;;;7.47;5.35;;;16.90;99.90;;;;;;5033094;28;20049;-67
2022/08/23 03:29:28;;;;;;;6.22;4.82;;;16.80;99.90;;;;;;5032321;28;20644;-67
2022/08/23 03:31:54;;;;;;;5.40;4.43;;;16.70;99.90;;;;;;5032605;28;20453;-67
2022/08/23 03:34:19;;;;;;;7.80;3.47;;;16.60;99.90;;;;;;5032372;28;20033;-67
2022/08/23 03:36:45;;;;;;;4.13;3.33;;;16.60;99.90;;;;;;5014961;28;20049;-67
2022/08/23 03:39:11;;;;;;;4.80;3.65;;;16.50;99.90;;;;;;5032445;28;20034;-67
2022/08/23 03:41:37;;;;;;;6.97;5.18;;;16.60;99.90;;;;;;5032341;28;20041;-67
2022/08/23 03:44:03;;;;;;;5.65;4.20;;;16.60;99.90;;;;;;5031914;28;20526;-67
2022/08/23 03:46:29;;;;;;;5.30;4.25;;;16.60;99.90;;;;;;5032490;28;20038;-67
2022/08/23 03:48:58;;;;;;;8.20;4.65;;;16.70;99.90;;;;;;5031687;28;20064;-67
2022/08/23 03:51:25;;;;;;;5.40;4.10;;;16.60;99.90;;;;;;5032132;28;20038;-67
2022/08/23 03:53:51;;;;;;;4.82;4.43;;;16.60;99.90;;;;;;5031726;28;20037;-67
2022/08/23 03:56:25;;;;;;;6.88;4.18;;;16.70;99.90;;;;;;5032280;28;20037;-67
2022/08/23 03:58:52;;;;;;;5.07;4.57;;;16.70;99.90;;;;;;5031955;28;20120;-67
2022/08/23 04:01:18;;;;;;;8.15;5.05;;;16.70;99.90;;;;;;5030707;28;20506;-67
2022/08/23 04:03:43;;;;;;;5.30;4.57;;;16.70;99.90;;;;;;5031710;28;20080;-67
2022/08/23 04:06:10;;;;;;;6.85;4.97;;;16.70;99.90;;;;;;5031859;28;20040;-67
2022/08/23 04:08:36;;;;;;;6.88;5.25;;;16.70;99.90;;;;;;5031630;28;20056;-67
2022/08/23 04:11:02;;;;;;;7.97;6.00;;;16.70;99.90;;;;;;5032025;28;20037;-67
2022/08/23 04:13:28;;;;;;;9.52;6.78;;;16.70;99.90;;;;;;5030768;28;20045;-67
2022/08/23 04:15:55;;;;;;;9.48;7.38;;;16.70;99.90;;;;;;5031454;28;20029;-67
2022/08/23 04:18:21;;;;;;;7.55;6.50;;;16.70;99.90;;;;;;5031853;28;20148;-67
2022/08/23 04:20:47;;;;;;;8.93;7.82;;;16.60;99.90;;;;;;5030220;28;20065;-67
2022/08/23 04:23:13;;;;;;;10.52;6.97;;;16.60;99.90;;;;;;5030331;28;20115;-67
2022/08/23 04:25:39;;;;;;;8.70;6.72;;;16.50;99.90;;;;;;5028266;28;20462;-67
2022/08/23 04:28:04;;;;;;;10.02;6.32;;;16.40;99.90;;;;;;5027119;28;20044;-67
2022/08/23 04:30:31;;;;;;;8.05;6.00;;;16.30;99.90;;;;;;5027705;28;20041;-67
2022/08/23 04:32:57;;;;;;;7.72;5.75;;;16.30;99.90;;;;;;5030563;28;20045;-67
2022/08/23 04:35:24;;;;;;;8.55;6.70;;;16.30;99.90;;;;;;5030504;28;20040;-67
2022/08/23 04:37:50;;;;;;;7.97;6.65;;;16.30;99.90;;;;;;5029696;28;20057;-67
2022/08/23 04:42:59;;;;;;;7.07;5.72;;;16.30;99.90;;;;;;5029503;28;20129;-67
2022/08/23 04:45:26;;;;;;;5.90;5.32;;;16.30;99.90;;;;;;5030910;28;20128;-67
2022/08/23 04:47:52;;;;;;;8.13;6.32;;;16.30;99.90;;;;;;5031275;28;20056;-67
2022/08/23 04:50:18;;;;;;;7.28;5.47;;;16.20;99.90;;;;;;5030879;28;20041;-67
2022/08/23 04:52:43;;;;;;;11.35;6.45;;;16.20;99.90;;;;;;5031261;28;20051;-67
2022/08/23 04:55:09;;;;;;;8.27;6.45;;;16.20;99.90;;;;;;5031017;28;20517;-67
2022/08/23 04:57:35;;;;;;;7.95;6.70;;;16.30;99.90;;;;;;5031075;28;20653;-67
2022/08/23 05:00:02;;;;;;;9.30;7.45;;;16.40;99.90;;;;;;5030985;28;20049;-67
2022/08/23 05:02:27;;;;;;;10.60;7.75;;;16.40;99.90;;;;;;5030902;28;20045;-67
2022/08/23 05:04:53;;;;;;;15.15;9.00;;;16.50;99.90;;;;;;5030568;28;20111;-67
2022/08/23 05:07:18;;;;;;;17.75;10.18;;;16.50;99.90;;;;;;5030997;28;20041;-67
2022/08/23 05:09:44;;;;;;;15.43;11.85;;;16.50;99.90;;;;;;5030792;28;20080;-67
2022/08/23 05:12:10;;;;;;;13.68;10.57;;;16.60;99.90;;;;;;5029690;28;20053;-67
2022/08/23 05:14:36;;;;;;;14.90;11.77;;;16.60;99.90;;;;;;5030684;28;20174;-67
2022/08/23 05:17:01;;;;;;;15.50;11.43;;;16.70;99.90;;;;;;5029539;28;20502;-67
2022/08/23 05:19:27;;;;;;;14.32;10.70;;;16.80;99.90;;;;;;5030693;28;20119;-67
2022/08/23 05:21:52;;;;;;;16.17;10.52;;;16.80;99.90;;;;;;5030730;28;20548;-67
2022/08/23 05:24:18;;;;;;;18.35;10.70;;;16.90;99.90;;;;;;5030569;28;20550;-67
2022/08/23 05:26:43;;;;;;;18.90;11.98;;;17.00;99.90;;;;;;5030869;28;20483;-67
2022/08/23 05:29:09;;;;;;;19.25;12.65;;;17.00;99.90;;;;;;5029548;28;20037;-67
2022/08/23 05:31:35;;;;;;;16.15;11.43;;;17.20;99.90;;;;;;5030626;28;20048;-67
2022/08/23 05:34:01;;;;;;;13.80;11.55;;;17.30;99.90;;;;;;5030209;28;20045;-67
2022/08/23 05:36:26;;;;;;;17.38;11.82;;;17.40;99.90;;;;;;5030871;28;20487;-67
2022/08/23 05:38:52;;;;;;;19.60;11.65;;;17.50;99.90;;;;;;5030303;28;20040;-67
2022/08/23 05:41:19;;;;;;;22.20;11.55;;;17.50;99.90;;;;;;5030517;28;20041;-67
2022/08/23 05:43:44;;;;;;;19.95;11.73;;;17.60;99.90;;;;;;5030212;28;20047;-67
2022/08/23 05:46:14;;;;;;;20.38;11.48;;;17.60;99.90;;;;;;5030546;28;20045;-67
2022/08/23 05:48:42;;;;;;;16.38;11.73;;;17.80;99.90;;;;;;5030149;28;20542;-67
2022/08/23 05:51:20;;;;;;;18.17;11.95;;;17.80;99.90;;;;;;5029193;28;20076;-67
2022/08/23 05:53:46;;;;;;;13.35;11.48;;;17.90;99.90;;;;;;5031013;28;20445;-67
2022/08/23 05:56:21;;;;;;;15.02;11.00;;;18.00;99.90;;;;;;5034584;28;20095;-67
2022/08/23 05:58:48;;;;;;;21.27;11.40;;;18.10;99.90;;;;;;5033097;28;20080;-67
2022/08/23 06:01:15;;;;;;;19.83;11.52;;;18.10;99.90;;;;;;5032988;28;20069;-67
2022/08/23 06:03:42;;;;;;;15.32;11.35;;;18.10;99.90;;;;;;5034231;28;20041;-67
2022/08/23 06:06:09;;;;;;;14.40;11.02;;;18.10;99.90;;;;;;5034074;28;20072;-66
2022/08/23 06:08:37;;;;;;;20.42;12.23;;;18.10;99.90;;;;;;5033805;28;20529;-67
2022/08/23 06:11:12;;;;;;;15.25;12.23;;;18.10;99.90;;;;;;5032803;28;20042;-67
2022/08/23 06:13:42;;;;;;;14.52;12.52;;;18.00;99.90;;;;;;5032793;28;20041;-67
2022/08/23 06:16:09;;;;;;;17.63;11.88;;;18.00;99.90;;;;;;5033794;28;20517;-67
2022/08/23 06:18:35;;;;;;;15.38;11.48;;;18.00;99.90;;;;;;5032881;28;20051;-67
2022/08/23 06:21:04;;;;;;;17.63;12.27;;;18.00;99.90;;;;;;5033727;28;20063;-67
2022/08/23 06:23:31;;;;;;;14.27;12.13;;;18.00;99.90;;;;;;5032531;28;20044;-67
2022/08/23 06:25:56;;;;;;;18.27;12.63;;;18.10;99.90;;;;;;5033661;28;20082;-67
2022/08/23 06:28:23;;;;;;;15.20;12.55;;;18.10;99.90;;;;;;5033871;28;20049;-67
2022/08/23 06:30:51;;;;;;;15.57;12.30;;;18.20;99.90;;;;;;5032245;28;20045;-67
2022/08/23 06:33:17;;;;;;;16.65;13.00;;;18.30;99.90;;;;;;5032621;28;20442;-67
2022/08/23 06:35:43;;;;;;;13.85;11.82;;;18.40;99.90;;;;;;5033280;28;20099;-67
2022/08/23 06:38:09;;;;;;;20.98;13.27;;;18.50;99.90;;;;;;5033560;28;20038;-67
2022/08/23 06:40:34;;;;;;;18.67;12.30;;;18.60;99.90;;;;;;5030666;28;20060;-67
2022/08/23 06:43:00;;;;;;;16.00;12.95;;;18.70;99.90;;;;;;5033598;28;20118;-67
2022/08/23 06:45:27;;;;;;;23.25;12.88;;;18.80;99.90;;;;;;5031924;28;20046;-67
2022/08/23 06:47:52;;;;;;;14.60;12.93;;;18.90;99.90;;;;;;5033035;28;20049;-67
2022/08/23 06:50:18;;;;;;;17.75;13.10;;;18.90;99.90;;;;;;5032081;28;20521;-67
2022/08/23 06:52:48;;;;;;;15.05;13.43;;;19.10;99.90;;;;;;5033293;28;20045;-67
2022/08/23 06:55:14;;;;;;;16.73;13.10;;;19.30;99.90;;;;;;5031881;28;20508;-67
2022/08/23 06:57:39;;;;;;;12.57;9.90;;;19.40;99.90;;;;;;5032683;28;20119;-66
2022/08/23 07:00:07;;;;;;;16.08;11.07;;;19.60;99.90;;;;;;5032952;28;20523;-66
2022/08/23 07:02:32;;;;;;;18.98;11.85;;;19.70;99.90;;;;;;5032936;28;20595;-67
2022/08/23 07:04:58;;;;;;;17.63;11.38;;;19.70;99.90;;;;;;5032273;28;20120;-67
2022/08/23 07:07:25;;;;;;;13.25;10.23;;;19.90;99.90;;;;;;5032899;28;20055;-67
2022/08/23 07:09:51;;;;;;;14.98;10.18;;;19.90;99.90;;;;;;5031270;28;20068;-67
2022/08/23 07:12:19;;;;;;;14.23;9.32;;;20.00;99.90;;;;;;5032776;28;20072;-66
2022/08/23 07:14:44;;;;;;;14.00;9.35;;;20.00;99.90;;;;;;5031306;28;20399;-66
2022/08/23 07:17:11;;;;;;;12.07;8.15;;;20.10;99.90;;;;;;5031940;28;20156;-66
2022/08/23 07:19:37;;;;;;;12.20;8.18;;;20.20;99.90;;;;;;5033065;28;20041;-66
2022/08/23 07:22:04;;;;;;;13.85;8.65;;;20.30;99.90;;;;;;5031688;28;20037;-67
2022/08/23 07:24:33;;;;;;;12.60;9.10;;;20.40;99.90;;;;;;5032366;28;20049;-66
2022/08/23 07:27:02;;;;;;;22.10;9.32;;;20.50;99.90;;;;;;5032597;28;20045;-66
2022/08/23 07:29:28;;;;;;;10.02;8.55;;;20.60;99.90;;;;;;5030906;28;20511;-67
2022/08/23 07:31:55;;;;;;;8.88;7.53;;;20.60;99.90;;;;;;5032491;28;20399;-66
2022/08/23 07:34:22;;;;;;;13.15;8.27;;;20.70;99.90;;;;;;5032229;28;20095;-67
2022/08/23 07:36:49;;;;;;;14.25;8.38;;;20.80;99.90;;;;;;5032491;28;20464;-66
2022/08/23 07:39:16;;;;;;;9.60;7.50;;;20.80;99.90;;;;;;5032287;28;20037;-66
2022/08/23 07:41:43;;;;;;;9.10;8.02;;;20.80;99.90;;;;;;5032302;28;20041;-67
2022/08/23 07:44:09;;;;;;;10.30;7.50;;;20.90;99.90;;;;;;5032184;28;20107;-65
2022/08/23 07:46:38;;;;;;;16.15;8.02;;;20.90;99.90;;;;;;5031202;28;20407;-66
2022/08/23 07:49:04;;;;;;;11.10;7.13;;;21.00;99.90;;;;;;5031948;28;20067;-66
2022/08/23 07:51:31;;;;;;;12.38;7.70;;;21.00;99.90;;;;;;5032173;28;20037;-66
2022/08/23 07:53:57;;;;;;;12.77;7.38;;;21.10;99.90;;;;;;5031701;28;20084;-66
2022/08/23 07:56:22;;;;;;;13.50;7.40;;;21.10;99.90;;;;;;5032262;28;20065;-66
2022/08/23 07:58:49;;;;;;;10.35;7.70;;;21.30;99.90;;;;;;5032268;28;20033;-66
2022/08/23 08:01:21;;;;;;;10.02;7.13;;;21.30;99.90;;;;;;5031979;28;20041;-66
2022/08/23 08:03:48;;;;;;;12.73;7.63;;;21.50;99.90;;;;;;5030421;28;20057;-66
2022/08/23 08:06:37;;;;;;;11.98;7.75;;;21.60;99.90;;;;;;5031874;28;20496;-66
2022/08/23 08:09:04;;;;;;;11.60;7.32;;;21.70;99.90;;;;;;5031808;28;20392;-66
2022/08/23 08:11:32;;;;;;;12.13;6.95;;;21.80;99.90;;;;;;5031854;28;20095;-66
2022/08/23 08:13:57;;;;;;;12.75;7.22;;;21.80;99.90;;;;;;5031601;28;20183;-66
2022/08/23 08:16:26;;;;;;;10.68;7.85;;;21.90;99.90;;;;;;5030864;28;20539;-66
2022/08/23 08:18:58;;;;;;;13.30;6.88;;;22.00;99.90;;;;;;5031645;28;20080;-66
2022/08/23 08:21:25;;;;;;;12.63;7.30;;;22.10;99.90;;;;;;5030557;28;20119;-66
2022/08/23 08:23:53;;;;;;;8.70;7.40;;;22.20;99.90;;;;;;5031543;28;20084;-67
2022/08/23 08:26:19;;;;;;;11.15;7.25;;;22.40;99.90;;;;;;5031666;28;20038;-67
2022/08/23 08:28:45;;;;;;;9.52;6.55;;;22.30;99.90;;;;;;5031424;28;20561;-68
2022/08/23 08:31:12;;;;;;;10.70;7.68;;;22.40;99.90;;;;;;5031245;28;20045;-67
2022/08/23 08:33:37;;;;;;;10.13;7.55;;;22.50;99.90;;;;;;5031274;28;20033;-68
2022/08/23 08:36:05;;;;;;;10.95;7.60;;;22.50;99.90;;;;;;5029749;28;20041;-67
2022/08/23 08:38:30;;;;;;;13.50;7.80;;;22.50;99.90;;;;;;5029925;28;20033;-68
2022/08/23 08:41:20;;;;;;;15.55;7.18;;;22.50;99.90;;;;;;5029830;28;20045;-67
2022/08/23 08:44:09;;;;;;;10.75;7.07;;;22.60;99.90;;;;;;5030898;28;20041;-68
2022/08/23 08:46:41;;;;;;;10.25;7.10;;;22.60;99.90;;;;;;5030149;28;20146;-68
2022/08/23 08:49:13;;;;;;;19.42;8.15;;;22.70;99.90;;;;;;5030735;28;20052;-67
2022/08/23 08:51:46;;;;;;;15.40;7.53;;;22.80;99.90;;;;;;5031152;28;20037;-67
2022/08/23 08:54:15;;;;;;;15.27;7.05;;;22.80;99.90;;;;;;5029495;28;20069;-67
2022/08/23 08:56:51;;;;;;;12.77;7.15;;;22.90;99.90;;;;;;5030026;28;20110;-68
2022/08/23 08:59:25;;;;;;;15.10;8.52;;;22.90;99.90;;;;;;5031266;28;20041;-68
2022/08/23 09:01:51;;;;;;;15.88;7.93;;;23.10;99.90;;;;;;5029974;28;20037;-67
2022/08/23 09:04:18;;;;;;;11.80;7.32;;;23.10;99.90;;;;;;5030671;28;20080;-68
2022/08/23 09:07:04;;;;;;;10.30;6.50;;;23.20;99.90;;;;;;5029692;28;20042;-68
2022/08/23 09:09:55;;;;;;;9.52;5.72;;;23.20;99.90;;;;;;5030905;28;20038;-67
2022/08/23 09:12:27;;;;;;;8.23;6.03;;;23.40;99.90;;;;;;5031006;28;20064;-68
2022/08/23 09:14:55;;;;;;;8.50;5.72;;;23.30;99.90;;;;;;5029312;28;20034;-67
2022/08/23 09:17:34;;;;;;;8.88;5.80;;;23.30;99.90;;;;;;5029435;28;20507;-68
2022/08/23 09:20:04;;;;;;;11.30;5.78;;;23.20;99.90;;;;;;5030998;28;20049;-67
2022/08/23 09:22:38;;;;;;;11.57;6.80;;;23.20;99.90;;;;;;5030925;28;20041;-67
2022/08/23 09:25:04;;;;;;;12.27;7.60;;;23.20;99.90;;;;;;5030614;28;20411;-67
2022/08/23 09:27:30;;;;;;;16.85;8.07;;;23.30;99.90;;;;;;5029829;28;20037;-68
2022/08/23 09:29:58;;;;;;;10.35;7.18;;;23.40;99.90;;;;;;5034560;28;20115;-67
2022/08/23 09:32:44;;;;;;;10.88;7.68;;;23.50;99.90;;;;;;5034741;28;20546;-67
2022/08/23 09:35:18;;;;;;;10.15;5.60;;;23.60;99.90;;;;;;5033166;28;20033;-67
2022/08/23 09:38:19;;;;;;;8.63;6.25;;;23.70;99.90;;;;;;5034755;28;20049;-67
2022/08/23 09:40:48;;;;;;;16.98;8.18;;;23.80;99.90;;;;;;5030472;28;20124;-67
2022/08/23 09:43:17;;;;;;;16.65;8.43;;;23.90;99.90;;;;;;5033279;28;20053;-67
2022/08/23 09:45:48;;;;;;;11.15;6.57;;;23.90;99.90;;;;;;5034343;28;20132;-67
2022/08/23 09:48:35;;;;;;;14.13;6.35;;;24.00;99.90;;;;;;5034542;28;20035;-67
2022/08/23 09:51:17;;;;;;;11.18;6.80;;;24.10;99.90;;;;;;5009307;28;20599;-67
2022/08/23 09:53:49;;;;;;;12.20;6.20;;;24.30;99.90;;;;;;5034437;28;20046;-67
2022/08/23 09:56:26;;;;;;;11.98;6.70;;;24.40;99.90;;;;;;5033088;28;20046;-67
2022/08/23 09:58:52;;;;;;;15.70;5.00;;;24.30;99.90;;;;;;5034211;28;20503;-67
2022/08/23 10:01:25;;;;;;;9.55;5.07;;;24.40;99.90;;;;;;5032858;28;20041;-67
2022/08/23 10:04:16;;;;;;;7.07;4.80;;;24.40;99.90;;;;;;5034207;28;20120;-67
2022/08/23 10:06:44;;;;;;;7.28;4.68;;;24.60;99.90;;;;;;5034249;28;20041;-67
2022/08/23 10:09:26;;;;;;;10.45;5.45;;;24.60;99.90;;;;;;5033804;28;20052;-67
2022/08/23 10:11:52;;;;;;;8.68;4.72;;;24.60;99.90;;;;;;5034183;28;20069;-68
2022/08/23 10:14:20;;;;;;;12.75;4.50;;;24.90;99.90;;;;;;5032639;28;20045;-67
2022/08/23 10:16:52;;;;;;;8.05;4.38;;;24.90;99.90;;;;;;5033960;28;20116;-68
2022/08/23 10:19:29;;;;;;;12.30;3.97;;;24.90;99.90;;;;;;5033995;28;20179;-67
2022/08/23 10:22:15;;;;;;;8.43;3.75;;;24.90;99.90;;;;;;5033769;28;20056;-67
2022/08/23 10:24:49;;;;;;;8.30;3.25;;;25.00;99.90;;;;;;5033790;28;20042;-68
2022/08/23 10:30:10;;;;;;;11.27;3.95;;;25.00;99.90;;;;;;5033576;28;20041;-67
2022/08/23 10:33:06;;;;;;;6.05;4.38;;;25.20;99.90;;;;;;5033751;28;20050;-67
2022/08/23 10:35:57;;;;;;;9.60;3.53;;;25.20;99.90;;;;;;5033312;28;20038;-68
2022/08/23 10:38:36;;;;;;;8.67;3.40;;;25.70;99.90;;;;;;5028615;28;20049;-67
2022/08/23 10:41:26;;;;;;;6.88;3.20;;;25.60;99.90;;;;;;5032534;28;20619;-67
2022/08/23 10:44:01;;;;;;;11.65;4.82;;;25.60;99.90;;;;;;5033170;28;20048;-66
2022/08/23 10:46:29;;;;;;;8.90;4.57;;;25.60;99.90;;;;;;5033302;28;20119;-66
2022/08/23 10:49:00;;;;;;;10.05;4.38;;;25.70;99.90;;;;;;5032867;28;20088;-67
2022/08/23 10:51:31;;;;;;;10.80;3.70;;;25.60;99.90;;;;;;5033087;28;20049;-66
2022/08/23 10:54:08;;;;;;;7.75;3.65;;;25.90;99.90;;;;;;5032775;28;20041;-67
2022/08/23 10:56:37;;;;;;;8.30;3.08;;;25.90;99.90;;;;;;5033283;28;20037;-66
2022/08/23 10:59:16;;;;;;;10.02;3.67;;;25.80;99.90;;;;;;5031696;28;20084;-66
2022/08/23 11:02:02;;;;;;;7.85;2.92;;;25.90;99.90;;;;;;5032917;28;20042;-66
2022/08/23 11:05:02;;;;;;;5.70;2.80;;;25.90;99.60;;;;;;5032481;28;20044;-66
2022/08/23 11:07:41;;;;;;;5.90;2.63;;;26.10;99.90;;;;;;5031741;28;20088;-66
2022/08/23 11:10:15;;;;;;;7.47;3.60;;;26.30;99.90;;;;;;5032618;28;20500;-66
2022/08/23 11:12:55;;;;;;;7.15;3.22;;;26.30;99.90;;;;;;5031534;28;20076;-66
2022/08/23 11:15:27;;;;;;;7.25;2.92;;;26.40;99.90;;;;;;5032606;28;20084;-66
2022/08/23 11:17:58;;;;;;;;;;;26.30;98.70;;;;;;5031761;28;20686;-66
2022/08/23 11:20:48;;;;;;;7.43;3.00;;;26.50;99.90;;;;;;5032596;28;20414;-66
2022/08/23 11:23:34;;;;;;;9.02;2.90;;;26.30;99.90;;;;;;5028010;28;20096;-66
2022/08/23 11:26:00;;;;;;;7.03;3.50;;;26.60;99.90;;;;;;5013605;28;20042;-66
2022/08/23 11:28:25;;;;;;;8.65;2.78;;;26.50;99.80;;;;;;5012775;28;20045;-66
2022/08/23 11:31:07;;;;;;;7.53;3.03;;;26.70;99.90;;;;;;5012502;28;20068;-67
2022/08/23 11:34:00;;;;;;;7.60;3.13;;;26.80;99.20;;;;;;5017606;28;20593;-66
2022/08/23 11:36:27;;;;;;;6.50;3.38;;;26.70;99.10;;;;;;5024187;28;20384;-66
2022/08/23 11:38:54;;;;;;;6.38;3.22;;;26.60;99.90;;;;;;5031283;28;20092;-66
2022/08/23 11:41:34;;;;;;;5.05;2.70;;;26.50;99.10;;;;;;5030844;28;20499;-66
2022/08/23 11:44:03;;;;;;;5.15;2.70;;;26.60;98.80;;;;;;5030654;28;20061;-66
2022/08/23 11:46:35;;;;;;;11.43;3.20;;;26.70;99.90;;;;;;5032358;28;20116;-66
2022/08/23 11:49:35;;;;;;;8.32;3.05;;;26.70;98.60;;;;;;5031792;28;20054;-66
2022/08/23 11:52:06;;;;;;;7.75;2.88;;;26.60;98.40;;;;;;5031953;28;20042;-67
2022/08/23 11:54:59;;;;;;;8.32;3.05;;;26.70;98.10;;;;;;5031956;28;20077;-66
2022/08/23 11:57:36;;;;;;;5.88;2.88;;;26.70;98.10;;;;;;5030743;28;20144;-66
2022/08/23 12:00:09;;;;;;;10.90;3.83;;;26.90;98.40;;;;;;5031840;28;20593;-66
2022/08/23 12:02:35;;;;;;;12.85;3.20;;;26.90;98.50;;;;;;5030624;28;20049;-66
2022/08/23 12:05:16;;;;;;;7.88;3.15;;;27.00;98.40;;;;;;5031835;28;20053;-66
2022/08/23 12:08:16;;;;;;;6.00;2.40;;;26.90;97.80;;;;;;5031963;28;20052;-66
2022/08/23 12:10:41;;;;;;;9.15;2.63;;;26.90;97.00;;;;;;5030245;28;20504;-66
2022/08/23 12:13:31;;;;;;;4.63;2.83;;;27.20;98.30;;;;;;5027451;28;20036;-66
2022/08/23 12:16:15;;;;;;;6.05;2.50;;;27.10;96.60;;;;;;5027709;28;20053;-66
2022/08/23 12:18:46;;;;;;;4.78;2.42;;;27.20;98.00;;;;;;5029432;28;20048;-66
2022/08/23 12:21:31;;;;;;;8.55;2.58;;;27.30;96.60;;;;;;5019976;28;20059;-66
2022/08/23 12:24:12;;;;;;;7.47;2.25;;;27.30;95.10;;;;;;5018919;28;20052;-66
2022/08/23 12:26:38;;;;;;;7.63;2.85;;;27.30;95.70;;;;;;5020651;28;20046;-66
2022/08/23 12:29:10;;;;;;;5.72;2.85;;;27.30;96.80;;;;;;5003187;28;20045;-67
2022/08/23 12:31:52;;;;;;;6.15;2.75;;;27.30;97.20;;;;;;5020063;28;20116;-67
2022/08/23 12:34:24;;;;;;;6.22;2.80;;;27.30;95.60;;;;;;5031325;28;20037;-66
2022/08/23 12:37:12;;;;;;;7.28;2.95;;;27.30;96.00;;;;;;5031234;28;20112;-67
2022/08/23 12:39:49;;;;;;;5.10;2.70;;;27.70;95.60;;;;;;5030055;28;20128;-67
2022/08/23 12:42:27;;;;;;;7.90;3.05;;;27.50;96.70;;;;;;5031150;28;20067;-67
2022/08/23 12:45:03;;;;;;;4.80;2.40;;;27.70;96.50;;;;;;5031224;28;20407;-68
2022/08/23 12:47:29;;;;;;;6.50;2.67;;;27.80;95.50;;;;;;5031326;28;20041;-67
2022/08/23 12:50:03;;;;;;;7.43;2.92;;;27.80;96.60;;;;;;5030785;28;20344;-67
2022/08/23 12:52:32;;;;;;;7.55;2.72;;;27.80;94.80;;;;;;5031065;28;20080;-67
2022/08/23 12:54:58;;;;;;;8.00;2.78;;;27.70;95.20;;;;;;5030864;28;20056;-67
2022/08/23 12:57:36;;;;;;;6.00;3.00;;;27.50;95.20;;;;;;5031247;28;20041;-67
2022/08/23 13:00:19;;;;;;;6.97;2.78;;;27.40;95.00;;;;;;5031208;28;20117;-67
2022/08/23 13:02:59;;;;;;;6.50;2.80;;;27.40;94.80;;;;;;5030663;28;20099;-67
2022/08/23 13:05:53;;;;;;;12.75;3.00;;;27.30;94.40;;;;;;5030701;28;20041;-67
2022/08/23 13:08:23;;;;;;;4.78;3.15;;;27.40;95.60;;;;;;5029493;28;20042;-67
2022/08/23 13:10:50;;;;;;;4.65;2.40;;;27.40;95.20;;;;;;5029538;28;20049;-67